• Join FlightAware (Why Join?)
  • Login
  • US Flag 
06:07AM EST


 

Airport Tracker/Info


-or-


 

Live Flight TrackerFlight Track Log ✈ SKW6441 ✈ 12-May-2013 ✈ KDEN - KSLC

Flight Track Log - Related Links

Times and Time Zones

All times are in EDT time to prevent confusion due to time zone crossing. See the SKW6441 flight status page for this flight to view local times or setup timezone preferences in your user account.

Time Position Orientation Groundspeed Altitude Reporting Facility
EDT Latitude Longitude Course Direction KTS MPH feet Rate Location/Type
06:19PM 39.8500 -104.8000 270° West 220 253 7,600  Level Denver TRACON
06:20PM 39.9000 -104.8667 314° West 257 296 9,600 1,680 Climbing Denver TRACON
06:21PM 39.8911 -105.1664 276° West  Level FlightAware Approximate
06:21PM 39.9067 -104.9775 275° West 286 329 11,100  Level Denver Center
06:22PM 39.9020 -105.2914 288° West  Level FlightAware Approximate
06:22PM 39.9186 -105.0978 277° West 307 353 13,200  Level Denver Center
06:23PM 39.9225 -105.4138 277° West  Level FlightAware Approximate
06:23PM 39.9294 -105.2119 277° West 316 364 15,100  Level Denver Center
06:24PM 39.9333 -105.5390 270° West  Level FlightAware Approximate
06:24PM 39.9417 -105.3272 278° West 322 371 16,800  Level Denver Center
06:25PM 39.9544 -105.4578 277° West 339 390 18,100 960 Climbing Denver Center
06:26PM 39.9661 -105.5844 277° West 351 404 18,900 1,020 Climbing Denver Center
06:27PM 39.9731 -105.7261 274° West 369 425 20,300 1,020 Climbing Denver Center
06:28PM 39.9708 -105.8358 269° West 366 421 21,000 960 Climbing Denver Center
06:29PM 39.9678 -105.9992 269° West 385 443 22,300 1,140 Climbing Denver Center
06:30PM 39.9764 -106.1411 275° West 392 451 23,400 840 Climbing Denver Center
06:31PM 39.9828 -106.2533 274° West 390 449 24,100 840 Climbing Denver Center
06:32PM 39.9933 -106.4250 275° West 396 456 25,200 960 Climbing Denver Center
06:33PM 40.0025 -106.5839 274° West 399 459 26,100 720 Climbing Denver Center
06:34PM 40.0092 -106.7233 274° West 403 464 26,800 660 Climbing Denver Center
06:35PM 40.0194 -106.8881 275° West 408 470 27,500 540 Climbing Denver Center
06:36PM 40.0267 -107.0311 274° West 412 474 28,000 540 Climbing Denver Center
06:37PM 40.0350 -107.2003 274° West 418 481 28,700 660 Climbing Denver Center
06:38PM 40.0419 -107.3450 274° West 420 483 29,400 480 Climbing Denver Center
06:39PM 40.0500 -107.5150 274° West 420 483 29,700 240 Climbing Denver Center
06:40PM 40.0572 -107.6619 274° West 423 487 30,000 120 Climbing Denver Center
06:41PM 40.0636 -107.8136 273° West 438 504 30,000  Level Denver Center
06:42PM 40.0717 -107.9925 273° West 443 510 30,000  Level Denver Center
06:43PM 40.0783 -108.1500 273° West 451 519 30,000  Level Denver Center
06:44PM 40.0875 -108.3333 274° West 455 524 30,000  Level Denver Center
06:45PM 40.0942 -108.4914 273° West 458 527 30,000  Level Denver Center
06:46PM 40.1011 -108.6750 273° West 457 526 30,000  Level Denver Center
06:47PM 40.1069 -108.8325 273° West 457 526 30,000  Level Denver Center
06:48PM 40.1111 -108.9367 273° West 457 526 30,000  Level Salt Lake Center
06:49PM 40.1172 -109.0931 273° West 455 524 30,000  Level Salt Lake Center
06:50PM 40.1192 -109.1722 272° West 455 524 30,000  Level Denver Center
06:51PM 40.1267 -109.3558 273° West 455 524 30,000  Level Denver Center
06:51PM 40.1292 -109.4342 272° West 456 525 30,000  Level Salt Lake Center
06:52PM 40.1342 -109.5911 272° West 454 522 30,000  Level Salt Lake Center
06:53PM 40.1394 -109.7753 272° West 454 522 30,000  Level Salt Lake Center
06:54PM 40.1444 -109.9333 272° West 455 524 30,000  Level Salt Lake Center
06:55PM 40.1486 -110.1183 272° West 458 527 30,000  Level Salt Lake Center
06:56PM 40.1489 -110.2764 270° West 457 526 30,000 -60 Level Salt Lake Center
06:57PM 40.1472 -110.4350 269° West 456 525 29,900 -1,200 Descending Salt Lake Center
06:58PM 40.1458 -110.6236 270° West 465 535 27,600 -2,100 Descending Salt Lake Center
06:59PM 40.1436 -110.7847 269° West 464 534 25,600 -2,100 Descending Salt Lake Center
07:00PM 40.1419 -110.9653 269° West 456 525 23,300 -2,220 Descending Salt Lake Center
07:01PM 40.1386 -111.1278 269° West 449 517 21,100 -2,100 Descending Salt Lake Center
07:02PM 40.1367 -111.2892 269° West 445 512 19,000 -1,980 Descending Salt Lake Center
07:03PM 40.1344 -111.4417 269° West 430 495 17,100 -1,740 Descending Salt Lake Center
07:04PM 40.1333 -111.5633 269° West 396 456 16,000 -1,140 Descending Salt Lake Center
07:04PM 40.1450 -111.5808 311° West 394 453 16,000 -360 Level Salt Lake Center
07:05PM 40.1733 -111.6761 291° West 393 452 15,700 -780 Descending Salt Lake Center
07:05PM 40.1978 -111.7061 317° Northwest 395 455 15,200 -1,740 Descending Salt Lake Center
07:06PM 40.2536 -111.7864 312° West 410 472 14,000 -1,680 Descending Salt Lake Center
07:06PM 40.2792 -111.8039 332° Northwest 395 455 13,500 -1,980 Descending Salt Lake Center
07:07PM 40.3411 -111.8692 321° Northwest 375 432 12,000 -1,980 Descending Salt Lake Center
07:07PM 40.3628 -111.8839 333° Northwest 374 430 11,500 -1,920 Descending Salt Lake Center
07:08PM 40.4286 -111.9297 332° Northwest 360 414 10,100 -1,500 Descending Salt Lake Center
07:08PM 40.4722 -111.9317 358° North 346 398 10,000 -300 Descending Salt Lake Center
07:09PM 40.5178 -111.9447 348° North 297 342 9,800 -1,020 Descending Salt Lake Center
07:09PM 40.5517 -111.9444 360° North 288 331 9,000 -1,800 Descending Salt Lake Center
07:10PM 40.5931 -111.9558 348° North 276 318 8,000 -1,860 Descending Salt Lake Center
07:11PM 40.6261 -111.9578 357° North 273 314 7,100 -1,560 Descending Salt Lake Center
07:11PM 40.6547 -111.9631 352° North 246 283 6,600 -1,140 Descending Salt Lake Center